North Swanzey, New Hampshire
Current Conditions -  °F | °C
As of 10:35 PM on Monday 22 Dec 2014 (Local Time) from KEEN Reporting Station
Overcast Overcast  
Wind Chill: 36°   Ceiling: 4600
Heat Index: 36°   Visibility: 10mi
Dew Point: 34°   Wind: 0mph
Humidity: 93%   Direction: NA
Pressure: 30.28"   Gusts: NA
Location:  42.9764°N, 72.2744°W
Report Text: KEEN 230335Z AUTO 00000KT 10SM OVC046 02/01 A3028 RMK AO1
Loading
Personal Weather Stations






























Interactive Weather Map New forecast layout! Learn more

10-Day Weather Forecast

Advertisements
Track Severe Weather on mobile